Time;durP1;ratioP1;P1;durP2;ratioP2;P2;SDS_P1;SDS_P2;PMS_P1;PMS_P2;Temp;Humidity;BMP_temperature;BMP_pressure;BME280_temperature;BME280_humidity;BME280_pressure;Samples;Min_cycle;Max_cycle;Signal;HPM_P1;HPM_P2
2021/12/29 00:00:27;;;;;;;3.50;1.10;;;9.00;99.90;;;;;;4897318;29;20435;-76
2021/12/29 00:02:58;;;;;;;8.80;1.17;;;9.00;99.90;;;;;;4898436;29;20481;-75
2021/12/29 00:05:24;;;;;;;5.97;1.20;;;9.00;99.90;;;;;;4898472;29;20434;-76
2021/12/29 00:07:50;;;;;;;7.83;0.77;;;9.00;99.90;;;;;;4898474;29;20437;-76
2021/12/29 00:10:16;;;;;;;6.00;1.00;;;9.00;99.90;;;;;;4898320;29;20500;-76
2021/12/29 00:12:46;;;;;;;2.10;0.70;;;9.00;99.90;;;;;;4893002;29;20209;-76
2021/12/29 00:15:15;;;;;;;3.30;0.80;;;9.10;99.90;;;;;;4895451;29;20492;-75
2021/12/29 00:17:42;;;;;;;4.43;0.90;;;9.10;99.90;;;;;;4897321;29;20424;-76
2021/12/29 00:20:09;;;;;;;4.93;0.80;;;9.10;99.90;;;;;;4898227;29;20186;-76
2021/12/29 00:22:35;;;;;;;16.67;2.67;;;9.10;99.90;;;;;;4896858;29;20451;-77
2021/12/29 00:25:01;;;;;;;4.90;0.80;;;9.20;99.90;;;;;;4897474;29;20930;-76
2021/12/29 00:27:26;;;;;;;2.00;1.47;;;9.20;99.90;;;;;;4897829;29;20186;-77
2021/12/29 00:29:52;;;;;;;4.23;0.50;;;9.20;99.90;;;;;;4897024;29;20994;-77
2021/12/29 00:32:17;;;;;;;1.73;0.73;;;9.20;99.90;;;;;;4896734;29;20266;-77
2021/12/29 00:34:43;;;;;;;3.40;0.57;;;9.20;99.90;;;;;;4897871;29;20212;-77
2021/12/29 00:37:09;;;;;;;4.63;0.90;;;9.10;99.90;;;;;;4897904;29;20180;-77
2021/12/29 00:39:34;;;;;;;0.80;0.60;;;9.10;99.90;;;;;;4898035;29;20539;-77
2021/12/29 00:42:01;;;;;;;1.40;0.50;;;9.10;99.90;;;;;;4898066;29;20208;-76
2021/12/29 00:44:27;;;;;;;7.07;0.87;;;9.10;99.90;;;;;;4911251;29;20215;-77
2021/12/29 00:46:54;;;;;;;1.30;1.03;;;9.10;99.90;;;;;;4897422;29;20413;-77
2021/12/29 00:49:21;;;;;;;1.50;0.50;;;9.10;99.90;;;;;;4897611;29;20281;-76
2021/12/29 00:51:48;;;;;;;2.37;0.60;;;9.10;99.90;;;;;;4897825;29;20439;-77
2021/12/29 00:54:14;;;;;;;3.50;0.83;;;9.10;99.90;;;;;;4897625;29;20469;-77
2021/12/29 00:56:40;;;;;;;6.57;0.60;;;9.00;99.90;;;;;;4897718;29;20424;-77
2021/12/29 00:59:05;;;;;;;4.93;1.00;;;9.10;99.90;;;;;;4897729;29;20423;-77
2021/12/29 05:30:53;;;;;;;0.97;0.50;;;8.20;99.90;;;;;;5953040;23;20375;31
2021/12/29 05:33:19;;;;;;;0.97;0.50;;;8.20;99.90;;;;;;4872778;29;20451;-77
2021/12/29 05:35:45;;;;;;;1.00;0.40;;;8.20;99.90;;;;;;4877289;29;20467;-77
2021/12/29 05:38:10;;;;;;;0.60;0.50;;;8.20;99.90;;;;;;4878105;29;20193;-77
2021/12/29 05:40:37;;;;;;;0.40;0.40;;;8.20;99.90;;;;;;4878102;29;20192;-77
2021/12/29 05:43:03;;;;;;;0.60;0.40;;;8.20;99.90;;;;;;4878042;29;20239;-77
2021/12/29 05:45:29;;;;;;;0.97;0.30;;;8.20;99.90;;;;;;4876549;29;20441;-76
2021/12/29 05:47:58;;;;;;;0.60;0.40;;;8.10;99.90;;;;;;4878286;29;20435;-77
2021/12/29 05:50:26;;;;;;;0.83;0.40;;;8.10;99.90;;;;;;4877943;29;20419;-76
2021/12/29 05:52:53;;;;;;;1.70;0.40;;;8.10;99.90;;;;;;4878417;29;20428;-76
2021/12/29 05:55:18;;;;;;;0.60;0.40;;;8.20;99.90;;;;;;4878168;29;20476;-77
2021/12/29 05:57:44;;;;;;;1.80;0.50;;;8.10;99.90;;;;;;4876983;29;20434;-77
2021/12/29 06:00:13;;;;;;;1.20;0.50;;;8.10;99.90;;;;;;4878669;29;20531;-77
2021/12/29 06:02:39;;;;;;;1.40;0.40;;;8.10;99.90;;;;;;4877899;29;20285;-77
2021/12/29 06:05:06;;;;;;;0.40;0.40;;;8.20;99.90;;;;;;4876380;29;20469;-77
2021/12/29 06:07:33;;;;;;;1.33;0.50;;;8.10;99.90;;;;;;4878123;29;20200;-77
2021/12/29 06:09:59;;;;;;;3.40;0.40;;;8.20;99.90;;;;;;4877810;29;20825;-77
2021/12/29 06:12:24;;;;;;;0.83;0.50;;;8.20;99.90;;;;;;4878122;29;20536;-77
2021/12/29 06:14:51;;;;;;;1.47;0.60;;;8.20;99.90;;;;;;4877797;29;20221;-77
2021/12/29 06:17:17;;;;;;;1.70;0.50;;;8.10;99.90;;;;;;4878006;29;20177;-77
2021/12/29 06:19:42;;;;;;;0.40;0.40;;;8.20;99.90;;;;;;4877976;29;20423;-77
2021/12/29 06:22:11;;;;;;;1.17;0.40;;;8.10;99.90;;;;;;4877754;29;20503;-77
2021/12/29 06:24:38;;;;;;;1.27;0.50;;;8.20;99.90;;;;;;4892242;29;20265;-77
2021/12/29 06:27:04;;;;;;;2.93;0.90;;;8.10;99.90;;;;;;4892044;29;20432;-77
2021/12/29 06:29:29;;;;;;;1.77;0.60;;;8.20;99.90;;;;;;4877790;29;20531;-76
2021/12/29 06:31:55;;;;;;;0.87;0.87;;;8.10;99.90;;;;;;4877334;29;20487;-77
2021/12/29 06:34:21;;;;;;;0.67;0.67;;;8.10;99.90;;;;;;4877584;29;20214;-77
2021/12/29 06:36:46;;;;;;;0.60;0.50;;;8.10;99.90;;;;;;4877914;29;20189;-77
2021/12/29 06:39:12;;;;;;;4.53;0.60;;;8.20;99.90;;;;;;4877755;29;20722;-77
2021/12/29 06:41:37;;;;;;;1.67;0.60;;;8.10;99.90;;;;;;4877771;29;20545;-77
2021/12/29 06:44:03;;;;;;;0.80;0.50;;;8.10;99.90;;;;;;4878809;29;20187;-77
2021/12/29 06:46:29;;;;;;;1.57;0.60;;;8.10;99.90;;;;;;4881392;29;20197;-77
2021/12/29 06:48:55;;;;;;;2.27;0.50;;;8.10;99.90;;;;;;4881296;29;20437;-78
2021/12/29 06:51:21;;;;;;;0.90;0.60;;;8.10;99.90;;;;;;4881100;29;20261;-76
2021/12/29 06:53:47;;;;;;;0.67;0.60;;;8.10;99.90;;;;;;4879889;29;20423;-77
2021/12/29 06:56:12;;;;;;;2.40;0.80;;;8.10;99.90;;;;;;4881155;29;20185;-78
2021/12/29 06:58:38;;;;;;;2.73;0.63;;;8.10;99.90;;;;;;4881365;29;20527;-76
2021/12/29 07:01:05;;;;;;;2.70;0.50;;;8.10;99.90;;;;;;4880691;29;20209;-76
2021/12/29 07:03:31;;;;;;;1.97;0.50;;;8.10;99.90;;;;;;4880522;29;20182;-76
2021/12/29 07:05:57;;;;;;;1.00;0.80;;;8.20;99.90;;;;;;4881010;29;20487;-75
2021/12/29 07:08:23;;;;;;;0.93;0.80;;;8.20;99.90;;;;;;4880614;29;20433;-76
2021/12/29 07:10:49;;;;;;;3.73;0.63;;;8.20;99.90;;;;;;4880617;29;20565;-75
2021/12/29 07:13:14;;;;;;;1.53;0.57;;;8.20;99.90;;;;;;4880336;29;20186;-75
2021/12/29 07:15:40;;;;;;;1.27;0.60;;;8.30;99.90;;;;;;4880755;29;20652;-76
2021/12/29 07:18:06;;;;;;;0.53;0.53;;;8.30;99.90;;;;;;4880084;29;20267;-75
2021/12/29 07:20:31;;;;;;;1.80;0.60;;;8.20;99.90;;;;;;4880319;29;20650;-76
2021/12/29 07:22:57;;;;;;;1.37;0.60;;;8.20;99.90;;;;;;4880375;29;20208;-75
2021/12/29 07:25:24;;;;;;;1.87;0.60;;;8.20;99.90;;;;;;4880300;29;20178;-75
2021/12/29 07:27:51;;;;;;;4.73;0.60;;;8.20;99.90;;;;;;4880459;29;20179;-77
2021/12/29 07:30:16;;;;;;;2.30;0.60;;;8.20;99.90;;;;;;4880154;29;20485;-75
2021/12/29 07:32:42;;;;;;;2.73;0.67;;;8.20;99.90;;;;;;4881100;29;20482;-75
2021/12/29 07:35:08;;;;;;;4.30;1.57;;;8.20;99.90;;;;;;4879825;29;20581;-75
2021/12/29 07:37:33;;;;;;;1.27;0.63;;;8.30;99.90;;;;;;4880252;29;20177;-75
2021/12/29 07:40:01;;;;;;;3.13;0.80;;;8.30;99.90;;;;;;4880351;29;20922;-75
2021/12/29 07:42:28;;;;;;;2.20;0.70;;;8.20;99.90;;;;;;4880359;29;20200;-76
2021/12/29 07:44:53;;;;;;;1.33;0.47;;;8.20;99.90;;;;;;4880101;29;20882;-75
2021/12/29 07:47:19;;;;;;;1.00;0.77;;;8.20;99.90;;;;;;4880337;29;20429;-75
2021/12/29 07:49:44;;;;;;;5.10;0.60;;;8.20;99.90;;;;;;4880213;29;20197;-76
2021/12/29 07:52:10;;;;;;;0.87;0.77;;;8.20;99.90;;;;;;4879972;29;20213;-75
2021/12/29 07:54:35;;;;;;;1.03;0.60;;;8.20;99.90;;;;;;4879511;29;20212;-76
2021/12/29 07:57:01;;;;;;;0.83;0.60;;;8.20;99.90;;;;;;4879305;29;20249;-75
2021/12/29 07:59:27;;;;;;;1.57;0.57;;;8.20;99.90;;;;;;4879760;29;20186;-76
2021/12/29 08:01:52;;;;;;;2.60;0.60;;;8.10;99.90;;;;;;4881265;29;20585;-77
2021/12/29 08:04:19;;;;;;;1.73;0.60;;;8.10;99.90;;;;;;4879802;29;20188;-76
2021/12/29 08:06:46;;;;;;;1.03;0.57;;;8.10;99.90;;;;;;4879984;29;20175;-76
2021/12/29 08:09:11;;;;;;;1.53;0.80;;;8.20;99.90;;;;;;4879830;29;20825;-77
2021/12/29 08:11:38;;;;;;;3.80;0.83;;;8.20;99.90;;;;;;4879979;29;20445;-76
2021/12/29 08:14:04;;;;;;;2.17;1.23;;;8.20;99.90;;;;;;4879925;29;20223;-76
2021/12/29 08:16:30;;;;;;;2.40;1.00;;;8.20;99.90;;;;;;4881606;29;20779;-77
2021/12/29 08:18:55;;;;;;;1.00;0.60;;;8.20;99.90;;;;;;4880085;29;20185;-77
2021/12/29 08:21:21;;;;;;;2.70;0.70;;;8.30;99.90;;;;;;4879877;29;20209;-76
2021/12/29 08:23:46;;;;;;;2.10;0.50;;;8.20;99.90;;;;;;4879757;29;20189;-77
2021/12/29 08:26:12;;;;;;;7.07;0.63;;;8.30;99.90;;;;;;4879801;29;20181;-77
2021/12/29 08:28:38;;;;;;;2.13;0.70;;;8.30;99.90;;;;;;4879491;29;20196;-76
2021/12/29 08:31:04;;;;;;;6.30;0.97;;;8.30;99.90;;;;;;4878814;29;20266;-77
2021/12/29 08:33:29;;;;;;;1.10;0.50;;;8.40;99.90;;;;;;4878722;29;20244;-77
2021/12/29 08:35:55;;;;;;;1.17;1.10;;;8.50;99.90;;;;;;4878936;29;20461;-73
2021/12/29 08:38:21;;;;;;;0.70;0.70;;;8.50;99.90;;;;;;4877596;29;20188;-74
2021/12/29 08:40:47;;;;;;;1.80;0.50;;;8.50;99.90;;;;;;4879075;29;20209;-73
2021/12/29 08:43:15;;;;;;;8.73;2.03;;;8.60;99.90;;;;;;4878228;29;20196;-74
2021/12/29 08:45:42;;;;;;;8.37;2.37;;;8.70;99.90;;;;;;4877661;29;20857;-73
2021/12/29 08:48:09;;;;;;;5.97;3.03;;;8.70;99.90;;;;;;4875370;29;20455;-74
2021/12/29 08:50:35;;;;;;;2.27;1.00;;;8.80;99.90;;;;;;4877592;29;20445;-73
2021/12/29 08:53:04;;;;;;;1.40;0.93;;;8.70;99.90;;;;;;4877753;29;20431;-74
2021/12/29 08:55:31;;;;;;;1.70;0.60;;;8.80;99.90;;;;;;4877704;29;20277;-74
2021/12/29 08:57:56;;;;;;;1.23;0.70;;;8.80;99.90;;;;;;4877911;29;20414;-74
2021/12/29 09:00:22;;;;;;;1.10;0.70;;;8.80;99.90;;;;;;4878008;29;20793;-74
2021/12/29 09:02:49;;;;;;;1.43;0.50;;;8.80;99.90;;;;;;4878090;29;20564;-72
2021/12/29 09:05:17;;;;;;;1.30;0.60;;;8.80;99.90;;;;;;4877972;29;20469;-73
2021/12/29 09:07:43;;;;;;;0.73;0.40;;;8.90;99.90;;;;;;4878163;29;20502;-74
2021/12/29 09:10:10;;;;;;;1.20;0.50;;;8.90;99.90;;;;;;4877920;29;20415;-74
2021/12/29 09:12:36;;;;;;;4.00;0.70;;;9.00;99.90;;;;;;4877967;29;20438;-73
2021/12/29 09:15:04;;;;;;;1.37;0.60;;;9.00;99.90;;;;;;4877856;29;20473;-74
2021/12/29 09:17:30;;;;;;;1.40;0.70;;;9.10;99.90;;;;;;4878109;29;20179;-74
2021/12/29 09:19:55;;;;;;;0.60;0.50;;;9.20;99.90;;;;;;4877946;29;20421;-73
2021/12/29 09:22:21;;;;;;;1.47;0.53;;;9.20;99.90;;;;;;4877707;29;20203;-74
2021/12/29 09:24:46;;;;;;;0.63;0.50;;;9.10;99.90;;;;;;4877809;29;20181;-74
2021/12/29 09:27:14;;;;;;;2.10;0.90;;;9.10;99.90;;;;;;4878045;29;20651;-74
2021/12/29 09:29:39;;;;;;;1.00;0.60;;;9.10;99.90;;;;;;4877925;29;20190;-74
2021/12/29 09:32:05;;;;;;;5.80;0.70;;;9.20;99.90;;;;;;4843613;29;1023299;-74
2021/12/29 09:34:32;;;;;;;2.63;0.80;;;9.20;99.90;;;;;;4878653;29;20240;-74
2021/12/29 09:36:59;;;;;;;3.93;1.07;;;9.30;99.90;;;;;;4878493;29;20177;-74
2021/12/29 09:39:25;;;;;;;2.87;0.77;;;9.30;99.90;;;;;;4878794;29;20425;-74
2021/12/29 09:41:52;;;;;;;2.60;2.40;;;9.30;99.90;;;;;;4878588;29;20920;-74
2021/12/29 09:44:18;;;;;;;1.00;0.63;;;9.30;99.90;;;;;;4878331;29;20447;-74
2021/12/29 09:46:43;;;;;;;2.30;0.70;;;9.30;99.90;;;;;;4878660;29;20434;-74
2021/12/29 09:49:09;;;;;;;1.00;0.73;;;9.30;99.90;;;;;;4878300;29;20421;-74
2021/12/29 09:51:35;;;;;;;2.00;0.90;;;9.30;99.90;;;;;;4878509;29;20681;-77
2021/12/29 09:54:01;;;;;;;3.20;1.17;;;9.40;99.90;;;;;;4877500;29;20652;-77
2021/12/29 09:56:27;;;;;;;5.20;1.27;;;9.30;99.90;;;;;;4879035;29;20254;-77
2021/12/29 09:58:55;;;;;;;5.83;1.30;;;9.30;99.90;;;;;;4878723;29;20847;-77
2021/12/29 10:01:21;;;;;;;1.93;1.00;;;9.30;99.90;;;;;;4878599;29;20232;-76
2021/12/29 10:03:47;;;;;;;0.87;0.70;;;9.30;99.90;;;;;;4878724;29;20423;-77
2021/12/29 10:06:14;;;;;;;1.03;0.60;;;9.40;99.90;;;;;;4878454;29;20421;-77
2021/12/29 10:08:44;;;;;;;3.47;1.30;;;9.50;99.90;;;;;;4878917;29;20429;-76
2021/12/29 10:11:14;;;;;;;3.70;0.73;;;9.50;99.90;;;;;;4878345;29;20448;-76
2021/12/29 10:13:43;;;;;;;2.27;0.90;;;9.50;99.90;;;;;;4878037;29;20432;-77
2021/12/29 10:16:15;;;;;;;0.60;0.60;;;9.50;99.90;;;;;;4878119;29;20534;-77
2021/12/29 10:18:43;;;;;;;0.90;0.60;;;9.60;99.90;;;;;;4879172;29;20439;-77
2021/12/29 10:21:14;;;;;;;2.40;0.87;;;9.60;99.90;;;;;;4881827;29;20453;-77
2021/12/29 10:23:46;;;;;;;5.00;0.90;;;9.70;99.90;;;;;;4881901;29;20886;-77
2021/12/29 10:26:24;;;;;;;1.63;0.67;;;9.70;99.90;;;;;;4881633;29;20912;-77
2021/12/29 10:28:55;;;;;;;5.97;1.17;;;9.80;99.90;;;;;;4882505;29;20438;-77
2021/12/29 10:31:24;;;;;;;1.27;0.60;;;9.80;99.90;;;;;;4881523;29;20986;-77
2021/12/29 10:33:56;;;;;;;5.03;0.90;;;9.80;99.90;;;;;;4881417;29;20433;-77
2021/12/29 10:36:23;;;;;;;1.53;0.70;;;9.90;99.90;;;;;;4881554;29;20810;-74
2021/12/29 10:39:12;;;;;;;3.03;1.13;;;9.90;99.90;;;;;;4881419;29;20529;-74
2021/12/29 10:41:55;;;;;;;4.37;0.90;;;9.90;99.90;;;;;;4881772;29;20463;-74
2021/12/29 10:44:25;;;;;;;1.43;0.80;;;10.00;99.90;;;;;;4881328;29;20514;-74
2021/12/29 10:46:55;;;;;;;1.63;1.00;;;10.00;99.90;;;;;;4881843;29;20515;-74
2021/12/29 10:49:22;;;;;;;1.50;0.80;;;10.00;99.90;;;;;;4881395;29;20417;-74
2021/12/29 10:51:48;;;;;;;0.87;0.70;;;9.90;99.90;;;;;;4881818;29;20472;-74
2021/12/29 10:54:16;;;;;;;3.60;1.07;;;10.00;99.90;;;;;;4881561;29;20506;-74
2021/12/29 10:56:45;;;;;;;2.33;1.03;;;10.00;99.90;;;;;;4881577;29;20173;-74
2021/12/29 10:59:13;;;;;;;1.80;0.70;;;10.00;99.90;;;;;;4881580;29;20854;-74
2021/12/29 11:01:38;;;;;;;4.53;1.00;;;10.10;99.90;;;;;;4881567;29;20434;-74
2021/12/29 11:04:04;;;;;;;4.73;1.00;;;10.10;99.90;;;;;;4881715;29;20430;-74
2021/12/29 11:06:29;;;;;;;4.87;2.10;;;10.10;99.90;;;;;;4882017;29;20544;-75
2021/12/29 11:08:58;;;;;;;4.60;1.00;;;10.10;99.90;;;;;;4881715;29;20269;-74
2021/12/29 11:11:39;;;;;;;1.93;1.10;;;10.00;99.90;;;;;;4881303;29;20230;-74
2021/12/29 11:14:14;;;;;;;4.57;1.00;;;10.10;99.90;;;;;;4881131;29;20390;-74
2021/12/29 11:16:40;;;;;;;3.40;1.10;;;10.00;99.90;;;;;;4881161;29;20414;-75
2021/12/29 11:19:06;;;;;;;9.23;1.43;;;10.10;99.90;;;;;;4880892;29;20419;-74
2021/12/29 11:21:36;;;;;;;1.90;0.97;;;10.10;99.90;;;;;;4880671;29;20437;-75
2021/12/29 11:24:16;;;;;;;2.20;1.00;;;10.10;99.90;;;;;;4879310;29;20437;-75
2021/12/29 11:26:43;;;;;;;6.00;1.20;;;10.10;99.90;;;;;;4880113;29;20434;-75
2021/12/29 11:29:12;;;;;;;3.23;0.80;;;10.10;99.90;;;;;;4880759;29;20426;-75
2021/12/29 11:31:46;;;;;;;4.43;0.80;;;10.10;99.90;;;;;;4880899;29;20465;-76
2021/12/29 11:34:18;;;;;;;3.43;0.70;;;10.20;99.90;;;;;;4880462;29;20502;-75
2021/12/29 11:36:48;;;;;;;1.77;1.27;;;10.20;99.90;;;;;;4880835;29;20423;-76
2021/12/29 11:39:14;;;;;;;5.80;5.00;;;10.20;99.90;;;;;;4880964;29;20447;-75
2021/12/29 11:41:42;;;;;;;6.50;3.37;;;10.20;99.90;;;;;;4879758;29;21123;-75
2021/12/29 11:44:08;;;;;;;1.40;1.30;;;10.20;99.90;;;;;;4880202;29;20644;-75
2021/12/29 11:46:33;;;;;;;2.87;2.20;;;10.20;99.90;;;;;;4881050;29;20431;-75
2021/12/29 11:49:03;;;;;;;6.83;3.73;;;10.20;99.90;;;;;;4880165;29;20178;-75
2021/12/29 11:51:37;;;;;;;4.87;1.77;;;10.20;99.90;;;;;;4880655;29;20682;-76
2021/12/29 11:54:09;;;;;;;5.40;1.60;;;10.20;99.90;;;;;;4879824;29;20417;-75
2021/12/29 11:56:41;;;;;;;4.00;2.80;;;10.20;99.90;;;;;;4880403;29;20909;-75
2021/12/29 11:59:07;;;;;;;1.53;1.13;;;10.20;99.90;;;;;;4879821;29;20413;-75
2021/12/29 12:01:32;;;;;;;3.10;2.50;;;10.20;99.90;;;;;;4880269;29;20526;-75
2021/12/29 12:04:00;;;;;;;4.00;1.63;;;10.30;99.90;;;;;;4880351;29;20185;-77
2021/12/29 12:06:34;;;;;;;1.40;1.27;;;10.30;99.90;;;;;;4880191;29;20184;-76
2021/12/29 12:09:24;;;;;;;2.40;1.63;;;10.30;99.90;;;;;;4879867;29;20438;-76
2021/12/29 12:11:53;;;;;;;2.93;0.90;;;10.30;99.90;;;;;;4880079;29;20450;-76
2021/12/29 12:14:24;;;;;;;1.70;0.80;;;10.30;99.90;;;;;;4879831;29;20890;-76
2021/12/29 12:17:11;;;;;;;1.33;0.80;;;10.40;99.90;;;;;;4879340;29;20410;-75
2021/12/29 12:19:37;;;;;;;1.20;0.70;;;10.50;99.90;;;;;;4894199;29;20184;-76
2021/12/29 12:22:18;;;;;;;1.53;0.97;;;10.50;99.90;;;;;;4878550;29;20547;-75
2021/12/29 12:24:55;;;;;;;3.20;0.60;;;10.40;99.90;;;;;;4879987;29;20438;-76
2021/12/29 12:27:42;;;;;;;1.37;1.20;;;10.40;99.90;;;;;;4881374;29;20422;-76
2021/12/29 12:30:13;;;;;;;5.30;0.83;;;10.40;99.90;;;;;;4880509;29;20418;-75
2021/12/29 12:32:42;;;;;;;1.00;0.60;;;10.50;99.90;;;;;;4878498;29;20462;-76
2021/12/29 12:35:09;;;;;;;4.43;1.17;;;10.50;99.90;;;;;;4879505;29;21033;-76
2021/12/29 12:37:40;;;;;;;7.60;5.67;;;10.40;99.90;;;;;;4879636;29;20410;-76
2021/12/29 12:40:14;;;;;;;4.00;1.40;;;10.50;99.90;;;;;;4880012;29;20871;-76
2021/12/29 12:42:40;;;;;;;5.50;2.60;;;10.50;99.90;;;;;;4877672;29;20551;-75
2021/12/29 12:45:18;;;;;;;3.27;0.70;;;10.60;99.90;;;;;;4877689;29;20594;-75
2021/12/29 12:47:44;;;;;;;1.07;0.80;;;10.60;99.90;;;;;;4879501;29;20769;-75
2021/12/29 12:50:10;;;;;;;4.50;2.33;;;10.50;99.90;;;;;;4879007;29;20427;-74
2021/12/29 12:52:42;;;;;;;4.20;1.43;;;10.60;99.90;;;;;;4879637;29;20837;-76
2021/12/29 12:55:10;;;;;;;3.83;2.30;;;10.60;99.90;;;;;;4879025;29;20214;-73
2021/12/29 12:57:44;;;;;;;2.33;2.13;;;10.70;99.90;;;;;;4873721;29;20469;-75
2021/12/29 13:00:28;;;;;;;1.67;1.40;;;10.70;99.90;;;;;;4880980;29;20483;-76
2021/12/29 13:02:59;;;;;;;3.07;1.30;;;10.80;99.90;;;;;;4877969;29;20478;-76
2021/12/29 13:05:30;;;;;;;2.93;0.87;;;10.80;99.90;;;;;;4878310;29;20448;-74
2021/12/29 13:08:04;;;;;;;3.47;1.30;;;10.70;99.90;;;;;;4878787;29;20496;-75
2021/12/29 13:10:33;;;;;;;2.63;1.00;;;10.80;99.90;;;;;;4878455;29;20429;-74
2021/12/29 13:13:10;;;;;;;5.43;0.93;;;10.70;99.90;;;;;;4878593;29;20436;-75
2021/12/29 13:15:37;;;;;;;5.07;1.43;;;10.70;99.90;;;;;;4878569;29;20469;-75
2021/12/29 13:18:02;;;;;;;3.60;1.20;;;10.60;99.90;;;;;;4878659;29;20442;-75
2021/12/29 13:20:28;;;;;;;5.53;1.60;;;10.60;99.90;;;;;;4878435;29;20449;-75
2021/12/29 13:22:54;;;;;;;4.83;1.30;;;10.60;99.90;;;;;;4878386;29;20210;-76
2021/12/29 13:25:28;;;;;;;3.17;1.37;;;10.60;99.90;;;;;;4878406;29;20189;-75
2021/12/29 13:28:04;;;;;;;7.00;2.17;;;10.60;99.90;;;;;;4877845;29;20185;-75
2021/12/29 13:30:36;;;;;;;4.03;1.10;;;10.50;99.90;;;;;;4878487;29;20431;-75
2021/12/29 13:33:01;;;;;;;2.80;1.10;;;10.60;99.90;;;;;;4878738;29;20425;-76
2021/12/29 13:35:34;;;;;;;4.73;1.20;;;10.60;99.90;;;;;;4883562;29;20823;-75
2021/12/29 13:38:02;;;;;;;7.60;1.83;;;10.50;99.90;;;;;;4879673;29;20417;-75
2021/12/29 13:40:31;;;;;;;8.10;1.57;;;10.50;99.90;;;;;;4879299;29;20935;-76
2021/12/29 13:42:57;;;;;;;5.93;1.30;;;10.50;99.90;;;;;;4878523;29;20423;-75
2021/12/29 13:45:25;;;;;;;9.30;1.67;;;10.60;99.90;;;;;;4878437;29;20427;-76
2021/12/29 13:47:51;;;;;;;4.90;1.70;;;10.60;99.90;;;;;;4878840;29;20654;-76
2021/12/29 13:50:17;;;;;;;6.40;1.53;;;10.50;99.90;;;;;;4878134;29;20428;-76
2021/12/29 13:53:04;;;;;;;5.00;1.50;;;10.60;99.90;;;;;;4877804;29;20446;-76
2021/12/29 13:55:34;;;;;;;10.63;1.53;;;10.60;99.90;;;;;;4878035;29;20461;-76
2021/12/29 13:58:01;;;;;;;4.87;1.10;;;10.60;99.90;;;;;;4878495;29;20423;-77
2021/12/29 14:00:27;;;;;;;6.97;1.43;;;10.60;99.90;;;;;;4878007;29;20427;-78
2021/12/29 14:02:53;;;;;;;6.30;1.43;;;10.60;99.90;;;;;;4876744;29;20451;-77
2021/12/29 14:05:19;;;;;;;5.90;1.40;;;10.60;99.90;;;;;;4877814;29;20428;-77
2021/12/29 14:07:44;;;;;;;3.60;1.57;;;10.50;99.90;;;;;;4878087;29;20188;-77
2021/12/29 14:10:11;;;;;;;10.27;1.87;;;10.50;99.90;;;;;;4877581;29;20940;-77
2021/12/29 14:12:37;;;;;;;3.30;1.10;;;10.50;99.90;;;;;;4877769;29;20213;-77
2021/12/29 14:15:10;;;;;;;4.33;1.50;;;10.50;99.90;;;;;;4877715;29;20465;-77
2021/12/29 14:17:42;;;;;;;3.80;0.97;;;10.50;99.90;;;;;;4876606;29;20205;-77
2021/12/29 14:20:11;;;;;;;5.00;1.50;;;10.50;99.90;;;;;;4877604;29;20426;-77
2021/12/29 14:22:36;;;;;;;3.40;1.67;;;10.40;99.90;;;;;;4877840;29;20476;-77
2021/12/29 14:25:10;;;;;;;2.30;1.10;;;10.40;99.90;;;;;;4877805;29;20458;-77
2021/12/29 14:27:37;;;;;;;2.40;0.97;;;10.40;99.90;;;;;;4878099;29;20182;-76
2021/12/29 14:30:32;;;;;;;4.53;1.37;;;10.30;99.90;;;;;;4877629;29;20426;-77
2021/12/29 14:33:01;;;;;;;4.77;1.30;;;10.30;99.90;;;;;;4872305;29;20438;-76
2021/12/29 14:35:29;;;;;;;5.50;1.23;;;10.30;99.90;;;;;;4877564;29;20477;-77
2021/12/29 14:37:56;;;;;;;2.63;1.20;;;10.30;99.90;;;;;;4878116;29;20550;-77
2021/12/29 14:40:24;;;;;;;5.97;1.17;;;10.30;99.90;;;;;;4876245;29;20458;-77
2021/12/29 14:42:49;;;;;;;3.93;0.97;;;10.20;99.90;;;;;;4877473;29;20509;-77
2021/12/29 14:45:15;;;;;;;3.57;1.20;;;10.20;99.90;;;;;;4877340;29;20863;-77
2021/12/29 14:47:49;;;;;;;8.80;1.63;;;10.20;99.90;;;;;;4877473;29;20181;-76
2021/12/29 14:50:18;;;;;;;1.87;0.77;;;10.10;99.90;;;;;;4882941;29;20605;-77
2021/12/29 14:52:45;;;;;;;6.87;1.17;;;10.10;99.90;;;;;;4878832;29;20438;-74
2021/12/29 14:55:24;;;;;;;3.67;2.37;;;10.10;99.90;;;;;;4876512;29;20896;-77
2021/12/29 14:57:50;;;;;;;2.47;1.93;;;10.10;99.90;;;;;;4878030;29;20470;-77
2021/12/29 15:00:26;;;;;;;2.60;2.40;;;10.10;99.90;;;;;;4876442;29;20430;-76
2021/12/29 15:03:01;;;;;;;2.80;1.10;;;10.00;99.90;;;;;;4877641;29;20966;-77
2021/12/29 15:05:35;;;;;;;4.07;1.40;;;10.00;99.90;;;;;;4879609;29;20429;-77
2021/12/29 15:08:01;;;;;;;1.07;0.80;;;10.00;99.90;;;;;;4881386;29;20810;-77
2021/12/29 15:10:36;;;;;;;5.10;1.20;;;9.90;99.90;;;;;;4881145;29;20433;-77
2021/12/29 15:13:04;;;;;;;2.37;1.30;;;9.90;99.90;;;;;;4881081;29;20181;-77
2021/12/29 15:15:33;;;;;;;1.90;1.33;;;9.90;99.90;;;;;;4880931;29;20455;-77
2021/12/29 15:18:04;;;;;;;3.27;1.10;;;9.80;99.90;;;;;;4879990;29;20564;-77
2021/12/29 15:20:33;;;;;;;2.33;1.33;;;9.80;99.90;;;;;;4879463;29;20430;-77
2021/12/29 15:23:00;;;;;;;4.80;1.50;;;9.80;99.90;;;;;;4880899;29;20446;-77
2021/12/29 15:25:26;;;;;;;4.87;2.30;;;9.80;99.90;;;;;;4880643;29;20421;-78
2021/12/29 15:27:55;;;;;;;2.03;1.23;;;9.80;99.90;;;;;;4880842;29;20767;-76
2021/12/29 15:30:22;;;;;;;3.70;1.27;;;9.80;99.90;;;;;;4880463;29;20436;-77
2021/12/29 15:32:49;;;;;;;3.10;2.10;;;9.70;99.90;;;;;;4880282;29;20559;-75
2021/12/29 15:35:15;;;;;;;4.20;1.20;;;9.70;99.90;;;;;;4880262;29;20508;-77
2021/12/29 15:37:41;;;;;;;1.10;0.80;;;9.70;99.90;;;;;;4880746;29;20420;-77
2021/12/29 15:40:09;;;;;;;2.67;1.30;;;9.60;99.90;;;;;;4880087;29;20426;-77
2021/12/29 15:42:34;;;;;;;2.23;1.10;;;9.70;99.90;;;;;;4880549;29;20245;-77
2021/12/29 15:45:01;;;;;;;8.83;1.10;;;9.60;99.90;;;;;;4880340;29;20443;-76
2021/12/29 15:47:27;;;;;;;2.70;1.90;;;9.60;99.90;;;;;;4880492;29;20189;-77
2021/12/29 15:49:52;;;;;;;3.33;1.20;;;9.60;99.90;;;;;;4880502;29;20419;-77
2021/12/29 15:52:18;;;;;;;1.67;1.07;;;9.60;99.90;;;;;;4878813;29;20266;-77
2021/12/29 15:54:44;;;;;;;5.33;3.10;;;9.60;99.90;;;;;;4879768;29;20241;-78
2021/12/29 15:57:10;;;;;;;2.00;1.27;;;9.60;99.90;;;;;;4879852;29;20689;-77
2021/12/29 15:59:36;;;;;;;1.10;1.00;;;9.60;99.90;;;;;;4880000;29;20179;-76
2021/12/29 16:02:05;;;;;;;2.40;1.80;;;9.50;99.90;;;;;;4879816;29;20437;-76
2021/12/29 16:04:31;;;;;;;11.57;4.27;;;9.50;99.90;;;;;;4879635;29;20427;-76
2021/12/29 16:06:56;;;;;;;4.90;1.60;;;9.40;99.90;;;;;;4879892;29;20454;-76
2021/12/29 16:09:22;;;;;;;7.70;1.97;;;9.30;99.90;;;;;;4879701;29;20455;-76
2021/12/29 16:11:47;;;;;;;3.10;2.40;;;9.30;99.90;;;;;;4879694;29;20204;-76
2021/12/29 16:14:13;;;;;;;4.60;2.87;;;9.20;99.90;;;;;;4879354;29;20662;-76
2021/12/29 16:16:39;;;;;;;3.10;2.23;;;9.20;99.90;;;;;;4877500;29;20451;-76
2021/12/29 16:19:04;;;;;;;4.60;3.83;;;9.20;99.90;;;;;;4879439;29;20178;-76
2021/12/29 16:21:30;;;;;;;5.40;2.70;;;9.20;99.90;;;;;;4879285;29;20496;-76
2021/12/29 16:23:55;;;;;;;2.57;1.90;;;9.20;99.90;;;;;;4879510;29;20556;-76
2021/12/29 16:26:21;;;;;;;8.70;2.40;;;9.20;99.90;;;;;;4879457;29;20182;-76
2021/12/29 16:28:47;;;;;;;4.13;2.23;;;9.10;99.90;;;;;;4879448;29;20731;-76
2021/12/29 16:31:13;;;;;;;4.20;3.57;;;9.10;99.90;;;;;;4879006;29;20208;-76
2021/12/29 16:33:38;;;;;;;4.60;2.17;;;9.10;99.90;;;;;;4879277;29;20657;-76
2021/12/29 16:36:04;;;;;;;2.90;1.80;;;9.10;99.90;;;;;;4879102;29;20209;-76
2021/12/29 16:38:30;;;;;;;1.80;1.20;;;9.00;99.90;;;;;;4879364;29;20783;-76
2021/12/29 16:40:56;;;;;;;2.07;1.30;;;9.00;99.90;;;;;;4878893;29;20735;-76
2021/12/29 16:43:22;;;;;;;3.43;2.60;;;9.00;99.90;;;;;;4879055;29;20177;-76
2021/12/29 16:45:49;;;;;;;3.10;1.63;;;9.00;99.90;;;;;;4879107;29;20427;-76
2021/12/29 16:48:15;;;;;;;4.47;1.87;;;9.00;99.90;;;;;;4879139;29;20184;-76
2021/12/29 16:50:41;;;;;;;3.00;1.50;;;9.00;99.90;;;;;;4878793;29;20471;-76
2021/12/29 16:53:06;;;;;;;6.83;2.17;;;9.00;99.90;;;;;;4878486;29;20213;-76
2021/12/29 16:55:36;;;;;;;1.90;1.80;;;9.00;99.90;;;;;;4878810;29;20305;-76
2021/12/29 16:58:02;;;;;;;4.70;1.80;;;9.00;99.90;;;;;;4878956;29;20561;-76
2021/12/29 17:00:28;;;;;;;1.77;1.67;;;9.00;99.90;;;;;;4878776;29;20427;-76
2021/12/29 17:02:54;;;;;;;2.10;1.43;;;9.00;99.90;;;;;;4870081;29;20861;-77
2021/12/29 17:05:20;;;;;;;1.60;1.37;;;9.00;99.90;;;;;;4864488;29;20209;-79
2021/12/29 17:07:46;;;;;;;7.20;2.07;;;9.00;99.90;;;;;;4877562;29;20527;-78
2021/12/29 17:10:13;;;;;;;3.23;1.97;;;8.90;99.90;;;;;;4878237;29;20467;-76
2021/12/29 17:12:40;;;;;;;2.50;1.30;;;9.00;99.90;;;;;;4877980;29;20264;-76
2021/12/29 17:15:06;;;;;;;2.50;1.80;;;8.90;99.90;;;;;;4866148;29;20485;-76
2021/12/29 17:17:31;;;;;;;1.60;1.50;;;8.90;99.90;;;;;;4878013;29;20471;-76
2021/12/29 17:19:58;;;;;;;4.57;2.03;;;8.90;99.90;;;;;;4876821;29;20467;-76
2021/12/29 17:22:24;;;;;;;2.50;1.93;;;8.80;99.90;;;;;;4877610;29;20581;-75
2021/12/29 17:24:53;;;;;;;2.97;2.13;;;8.80;99.90;;;;;;4866441;29;20471;-76